Lawton, Oklahoma
Current Conditions -  °F | °C
As of 9:58 PM on Friday 24 Oct 2014 (Local Time) from KFSI Reporting Station
Clear Clear  
Wind Chill: 71°   Ceiling: Unl
Heat Index: 71°   Visibility: 10mi
Dew Point: 60°   Wind: 7mph
Humidity: 69%   Direction: 180°S
Pressure: 30.04"   Gusts: NA
Location:  34.61°N, 98.39°W
Report Text: KFSI 250258Z AUTO 18006KT 10SM CLR 21/15 A3004 RMK AO2 SLP167 T02140154 52011
Loading
Personal Weather Stations






























Interactive Weather Map
Tropical Storm Tracking
New forecast layout! Learn more

10-Day Weather Forecast

Advertisements
Track Severe Weather on mobile